Yokohama, Japan

5:00 AM JST on July 27, 2016 (GMT +0900)
Hirato-Sakuragi Road | | Change Station

Elev 29 ft 35.43 °N, 139.60 °E | Updated 4 minutes ago

Mostly Cloudy
Mostly Cloudy
76.8 °F
Feels Like 78 °F
N
0.6
Wind Variable Wind from SSW
Gusts 1.2 mph

Today
High -- | Low -- °F
--% Chance of Precip.
Yesterday
High -- | Low -- °F
Precip. -- in
Pressure 29.83 in
Visibility 6.2 miles
Clouds Few 1000 ft
Scattered Clouds 1500 ft
Mostly Cloudy 3500 ft
Heat Index 78 °F
Dew Point 71 °F
Humidity 82%
Rainfall Not available.
Snow Depth Not available.
4:46 AM 6:49 PM
Waning Gibbous, 51% visible
METAR RJTT 261930Z 17008KT 9999 FEW010 SCT015 BKN035 24/22 Q1010 NOSIG RMK 1ST010 3CU015 7SC035 A2982
Pressure 29.83 in
Visibility 6.2 miles
Clouds Few 1000 ft
Scattered Clouds 1500 ft
Mostly Cloudy 3500 ft
Heat Index 78 °F
Dew Point 71 °F
Humidity 82%
Rainfall Not available.
Snow Depth Not available.
4:46 AM 6:49 PM
Waning Gibbous, 51% visible
METAR RJTT 261930Z 17008KT 9999 FEW010 SCT015 BKN035 24/22 Q1010 NOSIG RMK 1ST010 3CU015 7SC035 A2982

10-Day Weather Forecast

No radar image for this location.
×

Almanac

Astronomy

Jul. 27, 2016 Rise Set
Actual Time
Civil Twilight
Nautical Twilight
Astronomical Twilight
Moon
Length of Visible Light
Length of Day
Tomorrow will be .
, % of the Moon is Illuminated

Today's Extremes

Country Highs Country Lows

Community

WunderPhotos

Upload Photos

1,927,667 photos uploaded!

WunderBlog® & News

Nearby

Air Quality

  Air Quality AQ Index Pollutant
Not available.

Snow Depth

Station Depth Elevation

Earthquake Activity

City Distance Mag. Time & Date
Minimum magnitude displayed is 2.5.

Coastal Water Temperatures

Place Temperature

Stations

Nearby Weather Stations

Station Location Temp. Windchill Dew Point Humidity Wind Precip. Elev Updated Type